Time;durP1;ratioP1;P1;durP2;ratioP2;P2;SDS_P1;SDS_P2;PMS_P1;PMS_P2;Temp;Humidity;BMP_temperature;BMP_pressure;BME280_temperature;BME280_humidity;BME280_pressure;Samples;Min_cycle;Max_cycle;Signal;HPM_P1;HPM_P2
2022/12/28 00:00:29;;;;;;;8.90;4.13;;;6.40;99.90;;;;;;5051419;28;20063;-70
2022/12/28 00:02:56;;;;;;;9.98;2.90;;;6.40;99.90;;;;;;5042969;28;20103;-70
2022/12/28 00:05:21;;;;;;;9.02;3.25;;;6.40;99.90;;;;;;5050824;28;20032;-70
2022/12/28 00:07:47;;;;;;;9.77;3.47;;;6.40;99.90;;;;;;5033749;28;20439;-70
2022/12/28 00:10:13;;;;;;;10.23;3.05;;;6.40;99.90;;;;;;5022269;28;20486;-70
2022/12/28 00:12:38;;;;;;;7.53;3.03;;;6.40;99.90;;;;;;5037734;28;20033;-70
2022/12/28 00:15:04;;;;;;;10.30;3.58;;;6.30;99.90;;;;;;5037836;28;20036;-70
2022/12/28 00:17:30;;;;;;;8.95;3.13;;;6.30;99.90;;;;;;5035046;28;20041;-70
2022/12/28 00:19:58;;;;;;;9.15;3.53;;;6.30;99.90;;;;;;5034650;28;20040;-70
2022/12/28 00:22:23;;;;;;;12.32;4.03;;;6.30;99.90;;;;;;5032450;28;20045;-69
2022/12/28 00:24:49;;;;;;;6.00;2.40;;;6.30;99.90;;;;;;5049257;28;20515;-70
2022/12/28 00:27:14;;;;;;;8.63;3.15;;;6.30;99.90;;;;;;5045695;28;20037;-70
2022/12/28 00:29:40;;;;;;;8.13;3.13;;;6.30;99.90;;;;;;5052064;28;20131;-70
2022/12/28 00:32:06;;;;;;;7.88;3.38;;;6.30;99.90;;;;;;5035642;28;20060;-70
2022/12/28 00:34:31;;;;;;;10.13;3.58;;;6.30;99.90;;;;;;5051371;28;20075;-70
2022/12/28 00:36:57;;;;;;;8.25;2.70;;;6.20;99.90;;;;;;5035517;28;20033;-69
2022/12/28 00:39:22;;;;;;;7.68;3.67;;;6.30;99.90;;;;;;5052320;28;20053;-69
2022/12/28 00:41:48;;;;;;;7.95;3.17;;;6.20;99.90;;;;;;5035472;28;20493;-70
2022/12/28 00:44:13;;;;;;;7.55;3.15;;;6.30;99.90;;;;;;5050424;28;20044;-69
2022/12/28 00:46:39;;;;;;;11.73;3.60;;;6.30;99.90;;;;;;5052004;28;20049;-69
2022/12/28 00:49:05;;;;;;;9.45;3.50;;;6.20;99.90;;;;;;5067775;28;20041;-70
2022/12/28 00:51:30;;;;;;;4.68;2.55;;;6.20;99.90;;;;;;5051200;28;20116;-70
2022/12/28 00:53:56;;;;;;;7.75;3.20;;;6.30;99.90;;;;;;5050513;28;20037;-70
2022/12/28 00:56:22;;;;;;;9.75;4.20;;;6.20;99.90;;;;;;5035603;28;20389;-70
2022/12/28 00:58:48;;;;;;;9.70;3.85;;;6.20;99.90;;;;;;5051941;28;20051;-70
2022/12/28 01:01:16;;;;;;;7.43;3.63;;;6.20;99.90;;;;;;5035209;28;20607;-70
2022/12/28 01:03:42;;;;;;;7.63;3.22;;;6.20;99.90;;;;;;5050762;28;20053;-70
2022/12/28 01:06:11;;;;;;;7.32;3.13;;;6.30;99.90;;;;;;5051894;28;20075;-70
2022/12/28 01:08:37;;;;;;;7.25;2.85;;;6.30;99.90;;;;;;5051759;28;20041;-70
2022/12/28 01:11:12;;;;;;;7.93;3.33;;;6.20;99.90;;;;;;5052693;28;20033;-70
2022/12/28 01:13:38;;;;;;;10.95;3.90;;;6.20;99.90;;;;;;5030166;28;20513;-69
2022/12/28 01:16:13;;;;;;;9.18;3.40;;;6.20;99.90;;;;;;5058333;28;20037;-70
2022/12/28 01:18:39;;;;;;;7.47;2.88;;;6.20;99.90;;;;;;5041846;28;20082;-70
2022/12/28 01:21:10;;;;;;;10.02;3.60;;;6.30;99.90;;;;;;5058251;28;20045;-70
2022/12/28 01:23:35;;;;;;;7.38;3.00;;;6.20;99.90;;;;;;5041264;28;20029;-70
2022/12/28 01:26:02;;;;;;;5.82;2.60;;;6.30;99.90;;;;;;5041658;28;20546;-70
2022/12/28 01:28:28;;;;;;;6.70;3.55;;;6.30;99.90;;;;;;5040169;28;20040;-70
2022/12/28 01:30:53;;;;;;;8.18;3.33;;;6.30;99.90;;;;;;5073797;28;20120;-70
2022/12/28 01:33:19;;;;;;;6.72;3.17;;;6.30;99.90;;;;;;5053094;28;20117;-69
2022/12/28 01:35:44;;;;;;;9.98;3.13;;;6.30;99.90;;;;;;5021825;28;20110;-70
2022/12/28 01:38:10;;;;;;;8.13;3.10;;;6.30;99.90;;;;;;5038247;28;20408;-69
2022/12/28 01:40:36;;;;;;;7.32;2.90;;;6.30;99.90;;;;;;5021658;28;20064;-70
2022/12/28 01:43:10;;;;;;;8.55;3.05;;;6.30;99.90;;;;;;5043165;28;20036;-70
2022/12/28 01:45:36;;;;;;;5.25;2.35;;;6.30;99.90;;;;;;5031917;28;20041;-70
2022/12/28 01:48:01;;;;;;;5.82;3.05;;;6.40;99.90;;;;;;5040990;28;20040;-70
2022/12/28 01:50:28;;;;;;;8.85;3.60;;;6.40;99.90;;;;;;5057360;28;20044;-70
2022/12/28 01:53:02;;;;;;;8.10;3.65;;;6.40;99.90;;;;;;5035986;28;20032;-70
2022/12/28 01:55:31;;;;;;;7.47;3.35;;;6.30;99.90;;;;;;5057155;28;20116;-70
2022/12/28 01:58:02;;;;;;;8.82;3.78;;;6.40;99.90;;;;;;5041378;28;20043;-70
2022/12/28 02:00:28;;;;;;;8.85;4.18;;;6.40;99.90;;;;;;5058273;28;20048;-70
2022/12/28 02:03:02;;;;;;;8.13;3.08;;;6.40;99.90;;;;;;5055118;28;20061;-70
2022/12/28 02:05:33;;;;;;;7.32;3.22;;;6.40;99.90;;;;;;5038309;28;20544;-70
2022/12/28 02:08:12;;;;;;;6.63;3.58;;;6.40;99.90;;;;;;5037814;28;20081;-70
2022/12/28 02:10:39;;;;;;;8.20;2.65;;;6.50;99.90;;;;;;5021720;28;20580;-70
2022/12/28 02:13:05;;;;;;;11.38;4.60;;;6.50;99.90;;;;;;5042097;28;20037;-70
2022/12/28 02:15:31;;;;;;;6.70;2.80;;;6.50;99.90;;;;;;5057484;28;20083;-70
2022/12/28 02:17:58;;;;;;;7.45;3.08;;;6.50;99.90;;;;;;5055123;28;20041;-70
2022/12/28 02:20:29;;;;;;;9.55;3.90;;;6.50;99.90;;;;;;5057029;28;20072;-70
2022/12/28 02:23:15;;;;;;;6.03;2.67;;;6.50;99.90;;;;;;5044776;28;20048;-70
2022/12/28 02:25:40;;;;;;;8.15;3.17;;;6.50;99.90;;;;;;5037471;28;20103;-70
2022/12/28 02:28:41;;;;;;;7.03;3.47;;;6.50;99.90;;;;;;5050306;28;20041;-70
2022/12/28 02:31:56;;;;;;;6.65;2.65;;;6.50;99.90;;;;;;5020732;28;20485;-70
2022/12/28 02:34:38;;;;;;;5.43;2.45;;;6.50;99.90;;;;;;4994247;28;20045;-70
2022/12/28 02:37:36;;;;;;;8.35;3.25;;;6.50;99.90;;;;;;5068860;28;20502;-70
2022/12/28 02:40:25;;;;;;;7.60;2.90;;;6.50;99.90;;;;;;5035712;28;20096;-70
2022/12/28 02:42:53;;;;;;;4.93;2.45;;;6.50;99.90;;;;;;5035550;28;20041;-70
2022/12/28 02:51:18;;;;;;;6.18;3.20;;;6.50;99.90;;;;;;5054185;28;20037;-70
2022/12/28 02:56:05;;;;;;;7.43;3.05;;;6.50;99.90;;;;;;5036282;28;20493;-70
2022/12/28 02:57:08;;;;;;;9.20;3.72;;;6.60;99.90;;;;;;5054726;28;20124;-70
2022/12/28 02:59:39;;;;;;;7.30;2.95;;;6.50;99.90;;;;;;5036691;28;20133;-70
2022/12/28 03:02:23;;;;;;;6.35;2.97;;;6.50;99.90;;;;;;5037043;28;20045;-70
2022/12/28 03:05:07;;;;;;;5.43;2.90;;;6.60;99.90;;;;;;5054043;28;20132;-70
2022/12/28 03:08:19;;;;;;;5.75;2.60;;;6.60;99.90;;;;;;5035827;28;20084;-70
2022/12/28 03:11:10;;;;;;;4.05;1.83;;;6.60;99.90;;;;;;5054157;28;20033;-70
2022/12/28 03:13:49;;;;;;;6.95;2.97;;;6.70;99.90;;;;;;5051577;28;20025;-70
2022/12/28 03:33:07;;;;;;;4.90;2.08;;;6.80;99.90;;;;;;5050909;28;20041;-69
2022/12/28 03:35:54;;;;;;;5.22;2.72;;;6.80;99.90;;;;;;5065063;28;20044;-70
2022/12/28 03:38:27;;;;;;;3.47;1.98;;;6.90;99.90;;;;;;5037202;28;20037;-70
2022/12/28 03:41:07;;;;;;;5.97;2.90;;;6.90;99.90;;;;;;5053378;28;20635;-70
2022/12/28 03:43:48;;;;;;;4.65;2.78;;;6.90;99.90;;;;;;5034929;28;20037;-70
2022/12/28 03:46:17;;;;;;;4.95;2.63;;;6.90;99.90;;;;;;5036835;28;20155;-69
2022/12/28 03:48:44;;;;;;;7.07;3.67;;;6.90;99.90;;;;;;5064301;28;20051;-70
2022/12/28 03:51:13;;;;;;;7.88;3.42;;;6.90;99.90;;;;;;5072987;28;20052;-69
2022/12/28 03:53:45;;;;;;;5.40;2.58;;;6.90;99.90;;;;;;5056167;28;20120;-70
2022/12/28 03:56:19;;;;;;;3.03;1.90;;;7.00;99.90;;;;;;5051986;28;20143;-70
2022/12/28 03:58:46;;;;;;;4.03;2.25;;;7.10;99.90;;;;;;5051813;28;20048;-70
2022/12/28 04:01:11;;;;;;;4.78;2.20;;;7.00;99.90;;;;;;5044068;28;20045;-70
2022/12/28 04:03:38;;;;;;;4.18;2.10;;;7.10;99.90;;;;;;5032796;28;20056;-70
2022/12/28 04:06:04;;;;;;;4.32;1.83;;;7.10;99.90;;;;;;5042624;28;20501;-70
2022/12/28 04:08:31;;;;;;;3.70;1.83;;;7.10;99.90;;;;;;5016301;28;20050;-70
2022/12/28 04:11:00;;;;;;;4.00;2.15;;;7.10;99.90;;;;;;5039273;28;20067;-70
2022/12/28 04:13:30;;;;;;;3.85;2.13;;;7.20;99.90;;;;;;5034995;28;20375;-70
2022/12/28 04:16:02;;;;;;;8.85;3.58;;;7.20;99.90;;;;;;5036252;28;20389;-70
2022/12/28 04:18:29;;;;;;;5.07;2.63;;;7.20;99.90;;;;;;5034710;28;20045;-70
2022/12/28 04:20:55;;;;;;;5.03;2.40;;;7.20;99.90;;;;;;5068249;28;20029;-70
2022/12/28 04:23:20;;;;;;;3.72;2.08;;;7.20;99.90;;;;;;5034568;28;20485;-70
2022/12/28 04:26:04;;;;;;;3.90;1.95;;;7.30;99.90;;;;;;5051478;28;20036;-70
2022/12/28 04:28:32;;;;;;;4.25;2.33;;;7.30;99.90;;;;;;5049084;28;20037;-70
2022/12/28 04:30:58;;;;;;;6.85;3.03;;;7.30;99.90;;;;;;5052231;28;20501;-70
2022/12/28 04:33:24;;;;;;;3.53;1.98;;;7.30;99.90;;;;;;5035104;28;20159;-70
2022/12/28 04:35:50;;;;;;;5.18;2.42;;;7.30;99.90;;;;;;5035719;28;20095;-70
2022/12/28 04:38:16;;;;;;;4.32;2.15;;;7.30;99.90;;;;;;5032337;28;20389;-70
2022/12/28 04:40:42;;;;;;;4.15;2.40;;;7.30;99.90;;;;;;5052057;28;20059;-70
2022/12/28 04:43:07;;;;;;;4.20;1.92;;;7.30;99.90;;;;;;5051755;28;20075;-71
2022/12/28 04:45:33;;;;;;;3.20;1.75;;;7.30;99.90;;;;;;5050579;28;20044;-70
2022/12/28 04:47:59;;;;;;;4.45;2.00;;;7.40;99.90;;;;;;5048166;28;20041;-70
2022/12/28 04:50:26;;;;;;;2.92;1.58;;;7.40;99.90;;;;;;5066506;28;20052;-70
2022/12/28 04:52:51;;;;;;;3.42;1.85;;;7.40;99.90;;;;;;5046386;28;20037;-70
2022/12/28 04:55:17;;;;;;;2.67;1.88;;;7.40;99.90;;;;;;5035846;28;20040;-70
2022/12/28 04:57:44;;;;;;;3.42;1.83;;;7.40;99.90;;;;;;5035625;28;20405;-71
2022/12/28 05:00:10;;;;;;;5.57;2.75;;;7.40;99.90;;;;;;5049713;28;20044;-70
2022/12/28 05:02:36;;;;;;;4.53;2.63;;;7.40;99.90;;;;;;5068366;28;20049;-71
2022/12/28 05:05:02;;;;;;;3.58;1.92;;;7.50;99.90;;;;;;5042194;28;20409;-70
2022/12/28 05:07:27;;;;;;;4.70;2.17;;;7.50;99.90;;;;;;5021286;28;20040;-70
2022/12/28 05:09:53;;;;;;;4.32;2.47;;;7.50;99.90;;;;;;5049086;28;20037;-70
2022/12/28 05:12:19;;;;;;;4.43;2.40;;;7.60;99.90;;;;;;5048465;28;20109;-70
2022/12/28 05:14:45;;;;;;;2.78;1.52;;;7.60;99.90;;;;;;5050085;28;20078;-70
2022/12/28 05:17:10;;;;;;;5.68;2.78;;;7.60;99.90;;;;;;5051108;28;20033;-70
2022/12/28 05:19:36;;;;;;;3.83;2.05;;;7.60;99.90;;;;;;5051875;28;20041;-70
2022/12/28 05:22:02;;;;;;;5.43;2.95;;;7.70;99.90;;;;;;5050745;28;20128;-70
2022/12/28 05:24:27;;;;;;;6.50;3.13;;;7.70;99.90;;;;;;5067618;28;20898;-70
2022/12/28 05:26:53;;;;;;;3.72;2.22;;;7.70;99.90;;;;;;5050544;28;20072;-70
2022/12/28 05:29:19;;;;;;;4.50;2.67;;;7.70;99.90;;;;;;5059587;28;20120;-70
2022/12/28 05:31:44;;;;;;;6.90;3.97;;;7.80;99.90;;;;;;5050409;28;20561;-70
2022/12/28 05:34:10;;;;;;;6.50;3.85;;;7.80;99.90;;;;;;5050561;28;20033;-70
2022/12/28 05:36:36;;;;;;;4.57;2.67;;;7.80;99.90;;;;;;5050841;28;20436;-70
2022/12/28 05:39:03;;;;;;;5.43;2.97;;;7.80;99.90;;;;;;5049740;28;20041;-70
2022/12/28 05:41:29;;;;;;;3.70;2.28;;;7.90;99.90;;;;;;5035206;28;20393;-70
2022/12/28 05:43:56;;;;;;;4.88;2.88;;;7.90;99.90;;;;;;5033105;28;20383;-70
2022/12/28 05:46:25;;;;;;;6.32;3.67;;;7.90;99.90;;;;;;5035784;28;20108;-70
2022/12/28 05:48:51;;;;;;;7.57;4.60;;;7.90;99.90;;;;;;5050136;28;20040;-70
2022/12/28 05:51:19;;;;;;;5.35;2.72;;;7.90;99.90;;;;;;5068180;28;20041;-70
2022/12/28 05:53:45;;;;;;;5.35;2.75;;;8.00;99.90;;;;;;5066726;28;20433;-70
2022/12/28 05:56:20;;;;;;;4.55;2.40;;;8.00;99.90;;;;;;5068185;28;20128;-70
2022/12/28 05:58:51;;;;;;;4.32;2.45;;;8.10;99.90;;;;;;5054443;28;20389;-70
2022/12/28 06:01:19;;;;;;;5.88;3.45;;;8.20;99.90;;;;;;5059094;28;20040;-71
2022/12/28 06:03:46;;;;;;;5.78;2.65;;;8.10;99.90;;;;;;5052379;28;20052;-70
2022/12/28 06:06:15;;;;;;;4.80;3.08;;;8.10;99.90;;;;;;5058649;28;20076;-70
2022/12/28 06:08:41;;;;;;;7.10;4.07;;;8.20;99.90;;;;;;5035113;28;20046;-70
2022/12/28 06:11:13;;;;;;;6.78;4.57;;;8.20;99.90;;;;;;5017804;28;20037;-71
2022/12/28 06:13:38;;;;;;;6.75;3.20;;;8.20;99.90;;;;;;5029354;28;20497;-70
2022/12/28 06:16:06;;;;;;;9.23;4.88;;;8.20;99.90;;;;;;5036549;28;20071;-70
2022/12/28 06:18:32;;;;;;;8.45;3.58;;;8.20;99.90;;;;;;5037572;28;20083;-70
2022/12/28 06:21:18;;;;;;;7.15;4.20;;;8.30;99.90;;;;;;5052763;28;20052;-70
2022/12/28 06:23:44;;;;;;;5.43;3.22;;;8.30;99.90;;;;;;5053778;28;20076;-70
2022/12/28 06:26:13;;;;;;;6.97;3.45;;;8.40;99.90;;;;;;5036801;28;20037;-70
2022/12/28 06:28:39;;;;;;;5.40;3.15;;;8.40;99.90;;;;;;5052787;28;20049;-70
2022/12/28 06:31:06;;;;;;;5.05;2.72;;;8.40;99.90;;;;;;5049728;28;20073;-70
2022/12/28 06:33:33;;;;;;;3.88;2.28;;;8.40;99.90;;;;;;5053202;28;20045;-70
2022/12/28 06:35:59;;;;;;;6.18;3.17;;;8.40;99.90;;;;;;5065959;28;20061;-71
2022/12/28 06:38:26;;;;;;;3.60;2.00;;;8.40;99.90;;;;;;5028359;28;20052;-70
2022/12/28 06:40:52;;;;;;;6.35;2.78;;;8.50;99.90;;;;;;5053574;28;20049;-71
2022/12/28 06:43:17;;;;;;;4.65;2.75;;;8.50;99.90;;;;;;5054385;28;20225;-70
2022/12/28 06:45:53;;;;;;;6.90;3.67;;;8.50;99.90;;;;;;5041153;28;20045;-71
2022/12/28 06:48:18;;;;;;;5.47;3.60;;;8.50;99.90;;;;;;5040731;28;20041;-71
2022/12/28 06:50:56;;;;;;;5.65;2.90;;;8.50;99.90;;;;;;5052994;28;20033;-70
2022/12/28 06:53:23;;;;;;;6.97;4.20;;;8.50;99.90;;;;;;5054447;28;20037;-71
2022/12/28 06:55:56;;;;;;;7.15;4.40;;;8.50;99.90;;;;;;5044835;28;20033;-70
2022/12/28 06:58:23;;;;;;;5.53;3.15;;;8.50;99.90;;;;;;5054391;28;20375;-70
2022/12/28 07:00:49;;;;;;;4.20;2.33;;;8.50;99.90;;;;;;5064699;28;20049;-71
2022/12/28 07:03:14;;;;;;;4.93;2.90;;;8.60;99.90;;;;;;5033982;28;20063;-71
2022/12/28 07:05:40;;;;;;;5.03;2.88;;;8.60;99.90;;;;;;5036101;28;20489;-70
2022/12/28 07:08:06;;;;;;;4.57;2.70;;;8.60;99.90;;;;;;5053769;28;20045;-71
2022/12/28 07:10:35;;;;;;;5.82;3.60;;;8.60;99.90;;;;;;5031721;28;20033;-70
2022/12/28 07:13:01;;;;;;;4.40;2.63;;;8.60;99.90;;;;;;5054061;28;20116;-70
2022/12/28 07:15:26;;;;;;;4.63;2.50;;;8.70;99.90;;;;;;5053364;28;20116;-71
2022/12/28 07:17:52;;;;;;;5.95;3.65;;;8.70;99.90;;;;;;5035193;28;20048;-70
2022/12/28 07:20:17;;;;;;;4.82;3.15;;;8.70;99.90;;;;;;5041894;28;20041;-70
2022/12/28 07:22:43;;;;;;;6.22;3.28;;;8.70;99.90;;;;;;5050617;28;20060;-70
2022/12/28 07:25:08;;;;;;;6.20;3.75;;;8.70;99.90;;;;;;5045990;28;20048;-70
2022/12/28 07:27:34;;;;;;;5.45;2.88;;;8.70;99.90;;;;;;5027686;28;20127;-70
2022/12/28 07:30:00;;;;;;;6.47;3.42;;;8.80;99.90;;;;;;5068886;28;20059;-70
2022/12/28 07:32:26;;;;;;;6.22;4.00;;;8.80;99.90;;;;;;5051864;28;20055;-69
2022/12/28 07:34:52;;;;;;;7.65;4.47;;;8.80;99.90;;;;;;5053429;28;20045;-70
2022/12/28 07:37:18;;;;;;;5.57;3.67;;;8.80;99.90;;;;;;5051153;28;20512;-70
2022/12/28 07:39:43;;;;;;;9.10;3.33;;;8.80;99.90;;;;;;5049471;28;20076;-70
2022/12/28 07:42:10;;;;;;;5.97;3.53;;;8.90;99.90;;;;;;5048337;28;20482;-71
2022/12/28 07:44:36;;;;;;;7.82;3.97;;;8.90;99.90;;;;;;5049924;28;20123;-70
2022/12/28 07:47:02;;;;;;;8.23;5.00;;;8.90;99.90;;;;;;5034820;28;20041;-70
2022/12/28 07:49:28;;;;;;;7.25;2.60;;;8.90;99.90;;;;;;5035448;28;20045;-71
2022/12/28 07:51:53;;;;;;;6.90;4.20;;;8.90;99.90;;;;;;5052545;28;20033;-71
2022/12/28 07:54:19;;;;;;;8.07;4.63;;;9.00;99.90;;;;;;5035019;28;20033;-71
2022/12/28 07:56:45;;;;;;;8.30;5.05;;;8.90;99.90;;;;;;5052893;28;20040;-71
2022/12/28 07:59:13;;;;;;;7.85;3.40;;;9.00;99.90;;;;;;5052370;28;20400;-70
2022/12/28 08:01:39;;;;;;;4.70;2.78;;;9.00;99.90;;;;;;5067602;28;20040;-71
2022/12/28 08:04:08;;;;;;;6.50;4.00;;;9.00;99.90;;;;;;5051805;28;20547;-70
2022/12/28 08:06:36;;;;;;;6.13;3.85;;;9.00;99.90;;;;;;5035707;28;20123;-71
2022/12/28 08:09:02;;;;;;;7.63;3.63;;;9.10;99.90;;;;;;5033443;28;20117;-70
2022/12/28 08:11:31;;;;;;;6.65;3.38;;;9.10;99.90;;;;;;5035252;28;20091;-71
2022/12/28 08:13:58;;;;;;;7.60;4.03;;;9.10;99.90;;;;;;5035048;28;20044;-71
2022/12/28 08:16:25;;;;;;;8.20;4.88;;;9.10;99.90;;;;;;5051635;28;20043;-71
2022/12/28 08:18:51;;;;;;;4.60;2.75;;;9.10;99.90;;;;;;5034011;28;20095;-70
2022/12/28 08:21:24;;;;;;;6.45;4.15;;;9.10;99.90;;;;;;5035522;28;20043;-71
2022/12/28 08:23:50;;;;;;;7.22;4.78;;;9.10;99.90;;;;;;5049128;28;20524;-71
2022/12/28 08:26:37;;;;;;;5.20;3.20;;;9.10;99.90;;;;;;5044142;28;20036;-70
2022/12/28 08:29:06;;;;;;;6.97;4.47;;;9.20;99.90;;;;;;5034999;28;20116;-71
2022/12/28 08:31:35;;;;;;;7.10;4.20;;;9.10;99.90;;;;;;5050007;28;20037;-71
2022/12/28 08:34:02;;;;;;;6.40;3.63;;;9.10;99.90;;;;;;5051147;28;20037;-71
2022/12/28 08:36:28;;;;;;;6.80;4.43;;;9.20;99.90;;;;;;5034491;28;20037;-71
2022/12/28 08:38:53;;;;;;;6.45;3.00;;;9.20;99.90;;;;;;5051868;28;20040;-71
2022/12/28 08:41:22;;;;;;;8.45;4.55;;;9.20;99.90;;;;;;5049878;28;20447;-71
2022/12/28 08:43:48;;;;;;;7.20;4.50;;;9.20;99.90;;;;;;5048073;28;20247;-71
2022/12/28 08:46:17;;;;;;;8.07;3.85;;;9.20;99.90;;;;;;5050961;28;20043;-71
2022/12/28 08:48:43;;;;;;;6.93;3.67;;;9.20;99.90;;;;;;5050884;28;20123;-71
2022/12/28 08:51:12;;;;;;;7.20;4.63;;;9.20;99.90;;;;;;5051103;28;20033;-71
2022/12/28 08:53:39;;;;;;;6.95;3.95;;;9.20;99.90;;;;;;5050499;28;20056;-71
2022/12/28 08:56:10;;;;;;;8.07;4.90;;;9.20;99.90;;;;;;5035210;28;20374;-71
2022/12/28 08:58:37;;;;;;;6.18;3.60;;;9.10;99.90;;;;;;5048741;28;20048;-71
2022/12/28 09:01:06;;;;;;;6.72;3.47;;;9.10;99.90;;;;;;5034466;28;20063;-72
2022/12/28 09:03:33;;;;;;;5.13;2.53;;;9.20;99.90;;;;;;5030735;28;20053;-71
2022/12/28 09:06:02;;;;;;;5.55;3.05;;;9.20;99.90;;;;;;5050625;28;20045;-72
2022/12/28 09:08:27;;;;;;;5.78;3.45;;;9.30;99.90;;;;;;5047630;28;20509;-72
2022/12/28 09:10:53;;;;;;;6.43;3.35;;;9.30;99.90;;;;;;5032516;28;20135;-73
2022/12/28 09:13:19;;;;;;;4.70;2.70;;;9.10;99.90;;;;;;5032492;28;20398;-71
2022/12/28 09:15:54;;;;;;;6.55;3.20;;;9.20;99.90;;;;;;5015991;28;20037;-71
2022/12/28 09:18:20;;;;;;;6.05;3.35;;;9.20;99.90;;;;;;5049449;28;20041;-72
2022/12/28 09:20:45;;;;;;;4.32;2.58;;;9.20;99.90;;;;;;5057854;28;20037;-71
2022/12/28 09:23:11;;;;;;;5.45;3.22;;;9.20;99.90;;;;;;5029778;28;20059;-72
2022/12/28 09:25:36;;;;;;;5.45;3.13;;;9.20;99.90;;;;;;5044891;28;20095;-72
2022/12/28 09:28:02;;;;;;;6.13;3.40;;;9.20;99.90;;;;;;5033379;28;20048;-71
2022/12/28 09:30:27;;;;;;;7.55;4.55;;;9.20;99.90;;;;;;5034634;28;20044;-71
2022/12/28 09:33:57;;;;;;;5.28;3.33;;;9.20;99.90;;;;;;5054353;28;20040;-71
2022/12/28 09:35:39;;;;;;;5.32;2.92;;;9.20;99.90;;;;;;5061725;28;20499;-71
2022/12/28 09:38:04;;;;;;;6.43;3.80;;;9.30;99.90;;;;;;5040321;28;20069;-71
2022/12/28 09:40:32;;;;;;;3.55;1.98;;;9.30;99.90;;;;;;5050659;28;21158;-71
2022/12/28 09:42:58;;;;;;;5.38;3.13;;;9.30;99.90;;;;;;5052368;28;20047;-71
2022/12/28 09:45:25;;;;;;;5.43;2.75;;;9.30;99.90;;;;;;5052601;28;20401;-71
2022/12/28 09:47:56;;;;;;;6.10;3.08;;;9.40;99.90;;;;;;5054031;28;20048;-71
2022/12/28 09:50:28;;;;;;;3.85;2.50;;;9.40;99.90;;;;;;5052559;28;20164;-71
2022/12/28 09:53:05;;;;;;;4.97;2.75;;;9.40;99.90;;;;;;5044129;28;20478;-71
2022/12/28 09:55:38;;;;;;;6.35;2.35;;;9.40;99.90;;;;;;5051888;28;20029;-71
2022/12/28 09:58:10;;;;;;;5.60;2.90;;;9.40;99.90;;;;;;5054270;28;20037;-71
2022/12/28 10:00:41;;;;;;;;;;;9.40;99.90;;;;;;5036436;28;20436;-71
2022/12/28 10:03:36;;;;;;;3.15;1.60;;;9.40;99.90;;;;;;5036698;28;19921;-71
2022/12/28 10:06:05;;;;;;;5.00;3.03;;;9.50;99.90;;;;;;5052628;28;20128;-72
2022/12/28 10:08:35;;;;;;;4.63;2.53;;;9.50;99.90;;;;;;5037204;28;20037;-71
2022/12/28 10:11:01;;;;;;;5.13;2.60;;;9.50;99.90;;;;;;5053064;28;20122;-72
2022/12/28 10:13:35;;;;;;;6.40;2.53;;;9.50;99.90;;;;;;5037742;28;20044;-71
2022/12/28 10:16:04;;;;;;;4.82;2.60;;;9.60;99.90;;;;;;5037405;28;20037;-71
2022/12/28 10:18:30;;;;;;;3.65;2.15;;;9.60;99.90;;;;;;5049557;28;20119;-71
2022/12/28 10:20:56;;;;;;;4.57;2.53;;;9.60;99.90;;;;;;5041351;28;20437;-71
2022/12/28 10:23:29;;;;;;;6.40;2.97;;;9.60;99.90;;;;;;5065644;28;20090;-71
2022/12/28 10:25:57;;;;;;;5.95;3.25;;;9.60;99.90;;;;;;5052217;28;20562;-71
2022/12/28 10:28:27;;;;;;;3.85;2.22;;;9.60;99.90;;;;;;5054239;28;20049;-71
2022/12/28 10:31:05;;;;;;;3.70;2.38;;;9.60;99.90;;;;;;5035761;28;20037;-71
2022/12/28 10:33:31;;;;;;;3.15;1.65;;;9.70;99.90;;;;;;5034472;28;20464;-71
2022/12/28 10:35:58;;;;;;;6.43;3.65;;;9.60;99.90;;;;;;5053003;28;20040;-71
2022/12/28 10:38:28;;;;;;;4.13;2.58;;;9.60;99.90;;;;;;5036606;28;20037;-71
2022/12/28 10:41:05;;;;;;;5.22;2.55;;;9.70;99.90;;;;;;5050274;28;20124;-71
2022/12/28 10:43:37;;;;;;;2.47;1.25;;;9.70;99.90;;;;;;5028317;28;20131;-71
2022/12/28 10:46:13;;;;;;;4.15;2.03;;;9.70;99.90;;;;;;5047742;28;20182;-71
2022/12/28 10:48:43;;;;;;;3.58;2.17;;;9.70;99.90;;;;;;5053041;28;20044;-71
2022/12/28 10:51:20;;;;;;;4.63;2.13;;;9.70;99.90;;;;;;5030557;28;20083;-72
2022/12/28 10:53:48;;;;;;;2.95;1.95;;;9.80;99.90;;;;;;5053903;28;20431;-71
2022/12/28 10:56:18;;;;;;;4.30;2.10;;;9.70;99.90;;;;;;5069866;28;20044;-71
2022/12/28 10:58:46;;;;;;;3.97;2.08;;;9.70;99.90;;;;;;5035079;28;20036;-71
2022/12/28 11:01:12;;;;;;;3.08;1.65;;;9.70;99.90;;;;;;5041009;28;20033;-71
2022/12/28 11:03:39;;;;;;;3.22;2.28;;;9.70;99.90;;;;;;5027708;28;20221;-71
2022/12/28 11:06:10;;;;;;;4.20;2.55;;;9.70;99.90;;;;;;5045945;28;20083;-71
2022/12/28 11:08:38;;;;;;;4.23;1.93;;;9.80;99.90;;;;;;5034928;28;20100;-71
2022/12/28 11:11:05;;;;;;;4.53;2.38;;;9.70;99.90;;;;;;5036602;28;20153;-71
2022/12/28 11:13:31;;;;;;;4.57;2.50;;;9.80;99.90;;;;;;5035870;28;20041;-71
2022/12/28 11:15:57;;;;;;;4.28;2.70;;;9.70;99.90;;;;;;5052153;28;20037;-71
2022/12/28 11:18:22;;;;;;;4.75;2.47;;;9.80;99.90;;;;;;5052522;28;20508;-72
2022/12/28 11:20:51;;;;;;;3.83;1.95;;;9.70;99.90;;;;;;5052840;28;20051;-71
2022/12/28 11:23:22;;;;;;;4.15;2.00;;;9.80;99.90;;;;;;5036152;28;20041;-71
2022/12/28 11:25:48;;;;;;;5.07;2.72;;;9.80;99.90;;;;;;5035562;28;20052;-71
2022/12/28 11:28:20;;;;;;;4.50;1.77;;;9.80;99.90;;;;;;5051782;28;20501;-71
2022/12/28 11:30:47;;;;;;;;;;;9.80;99.90;;;;;;5036885;28;20040;-72
2022/12/28 11:33:34;;;;;;;3.17;1.98;;;9.80;99.90;;;;;;5035690;28;19959;-72
2022/12/28 11:36:00;;;;;;;3.05;1.90;;;9.80;99.90;;;;;;5049888;28;20045;-72
2022/12/28 11:38:47;;;;;;;3.53;2.35;;;9.70;99.90;;;;;;5037251;28;21315;-72
2022/12/28 11:41:26;;;;;;;3.17;1.63;;;9.70;99.90;;;;;;5032987;28;20045;-72
2022/12/28 11:43:54;;;;;;;3.25;1.83;;;9.80;99.90;;;;;;5060553;28;20509;-72
2022/12/28 11:46:19;;;;;;;2.33;1.50;;;9.70;99.90;;;;;;5035401;28;20033;-72
2022/12/28 11:48:53;;;;;;;3.13;1.92;;;9.80;99.90;;;;;;5051498;28;20036;-72
2022/12/28 11:51:25;;;;;;;3.55;1.80;;;9.70;99.90;;;;;;5035986;28;20037;-72
2022/12/28 11:53:56;;;;;;;4.50;1.92;;;9.70;99.90;;;;;;5034893;28;20048;-72
2022/12/28 11:56:43;;;;;;;1.77;1.10;;;9.70;99.90;;;;;;5039457;28;20049;-71
2022/12/28 11:59:44;;;;;;;2.90;1.80;;;9.70;99.90;;;;;;5043842;28;20045;-71
2022/12/28 12:02:19;;;;;;;3.30;1.92;;;9.80;99.90;;;;;;5014575;28;20067;-71
2022/12/28 12:04:45;;;;;;;3.47;1.42;;;9.70;99.90;;;;;;5043836;28;20519;-71
2022/12/28 12:07:18;;;;;;;1.75;1.20;;;9.70;99.90;;;;;;5022589;28;20037;-71
2022/12/28 12:09:47;;;;;;;3.47;1.90;;;9.80;99.90;;;;;;5035529;28;20128;-71
2022/12/28 12:12:13;;;;;;;2.30;1.40;;;9.70;99.90;;;;;;5035739;28;20045;-71
2022/12/28 12:14:47;;;;;;;1.75;1.13;;;9.70;99.90;;;;;;5035740;28;20072;-72
2022/12/28 12:17:51;;;;;;;2.63;1.52;;;9.70;99.90;;;;;;5035696;28;20037;-71
2022/12/28 12:20:27;;;;;;;2.67;1.67;;;9.80;99.90;;;;;;5042228;28;20045;-71
2022/12/28 12:23:07;;;;;;;3.65;2.03;;;9.70;99.90;;;;;;5050925;28;20504;-72
2022/12/28 12:25:44;;;;;;;3.42;2.10;;;9.70;99.90;;;;;;5032271;28;20047;-72
2022/12/28 12:28:29;;;;;;;2.58;1.67;;;9.70;99.90;;;;;;5048345;28;20413;-71
2022/12/28 12:30:56;;;;;;;2.50;1.67;;;9.70;99.90;;;;;;5037921;28;20041;-71
2022/12/28 12:33:26;;;;;;;2.67;1.45;;;9.70;99.90;;;;;;5035633;28;20042;-71
2022/12/28 12:36:00;;;;;;;2.20;1.23;;;9.70;99.90;;;;;;5023653;28;20048;-71
2022/12/28 12:38:56;;;;;;;2.53;1.60;;;9.80;99.90;;;;;;5044095;28;20053;-71
2022/12/28 12:41:41;;;;;;;3.80;2.00;;;9.80;99.90;;;;;;5033644;28;20056;-72
2022/12/28 12:44:38;;;;;;;3.25;2.15;;;9.70;99.90;;;;;;5044461;28;20037;-71
2022/12/28 12:47:16;;;;;;;3.50;2.30;;;9.80;99.90;;;;;;5041199;28;20048;-71
2022/12/28 12:49:51;;;;;;;2.58;1.50;;;9.70;99.90;;;;;;5030572;28;20110;-71
2022/12/28 12:52:34;;;;;;;2.25;1.45;;;9.70;99.90;;;;;;5053745;28;20065;-71
2022/12/28 12:55:16;;;;;;;1.90;1.23;;;9.70;99.90;;;;;;5040041;28;20038;-71
2022/12/28 12:57:48;;;;;;;;;;;9.80;99.90;;;;;;5064538;28;20087;-71
2022/12/28 13:00:16;;;;;;;2.95;1.65;;;9.70;99.90;;;;;;5033612;28;19959;-71
2022/12/28 13:03:02;;;;;;;3.92;2.28;;;9.70;99.90;;;;;;5048360;28;20056;-72
2022/12/28 13:05:29;;;;;;;2.15;1.33;;;9.70;99.90;;;;;;5032472;28;20033;-71
2022/12/28 13:07:57;;;;;;;2.15;1.60;;;9.70;99.90;;;;;;5024715;28;20038;-71
2022/12/28 13:10:30;;;;;;;2.25;1.10;;;9.70;99.90;;;;;;5062423;28;20120;-71
2022/12/28 13:12:59;;;;;;;2.40;1.17;;;9.70;99.90;;;;;;5067017;28;20041;-71
2022/12/28 13:15:24;;;;;;;1.80;1.15;;;9.70;99.90;;;;;;5036634;28;20438;-71
2022/12/28 13:18:04;;;;;;;1.67;1.17;;;9.70;99.90;;;;;;5020658;28;20069;-71
2022/12/28 13:20:30;;;;;;;2.85;1.13;;;9.70;99.90;;;;;;5045458;28;20033;-71
2022/12/28 13:22:56;;;;;;;2.72;1.40;;;9.70;99.90;;;;;;5038238;28;20033;-71
2022/12/28 13:25:32;;;;;;;2.17;1.30;;;9.70;99.90;;;;;;5036905;28;20045;-71
2022/12/28 13:28:02;;;;;;;2.85;1.25;;;9.70;99.90;;;;;;5044265;28;20076;-71
2022/12/28 13:30:28;;;;;;;1.83;1.13;;;9.70;99.90;;;;;;5040438;28;20044;-72
2022/12/28 13:32:57;;;;;;;1.80;0.90;;;9.70;99.90;;;;;;5031118;28;20037;-71
2022/12/28 13:35:27;;;;;;;2.35;1.23;;;9.70;99.90;;;;;;5033440;28;20033;-71